<?xml version="1.0" encoding="UTF-8" standalone="no" ?>
<gpx xmlns="http://www.topografix.com/GPX/1/1" xmlns:xsi="http://www.w3.org/2001/XMLSchema-instance" xsi:schemaLocation="http://www.topografix.com/GPX/1/1 http://www.topografix.com/GPX/1/1/gpx.xsd" version="1.1" creator="VisuGPX - https://www.visugpx.com">
  <metadata>
    <name>#FONT/ Franchard_recloses_pk_grands_feuillards</name>
    <desc><![CDATA[Au départ du parking des Grands Feuillards, balade autour en foret de Fontainebleau]]></desc>
  </metadata>
  <trk>
    <name><![CDATA[Franchard Recloses PK Grands Feuillards-17347829]]></name>
    <extensions>
      <line xmlns="http://www.topografix.com/GPX/gpx_style/0/2">
        <color>0000FF</color>
        <width>4</width>
      </line>
    </extensions>
    <trkseg>
      <trkpt lat="48.3754" lon="2.62341">
        <ele>138</ele>
        <time>2023-08-04T07:06:34Z</time>
      </trkpt>
      <trkpt lat="48.37992" lon="2.62382">
        <ele>136</ele>
        <time>2023-08-04T07:16:38Z</time>
      </trkpt>
      <trkpt lat="48.38692" lon="2.62483">
        <ele>134</ele>
        <time>2023-08-04T07:32:17Z</time>
      </trkpt>
      <trkpt lat="48.3919" lon="2.62556">
        <ele>134</ele>
        <time>2023-08-04T07:43:24Z</time>
      </trkpt>
      <trkpt lat="48.39457" lon="2.62538">
        <ele>134</ele>
        <time>2023-08-04T07:49:21Z</time>
      </trkpt>
      <trkpt lat="48.39857" lon="2.6269">
        <ele>138</ele>
        <time>2023-08-04T07:58:32Z</time>
      </trkpt>
      <trkpt lat="48.39991" lon="2.62763">
        <ele>137</ele>
        <time>2023-08-04T08:01:42Z</time>
      </trkpt>
      <trkpt lat="48.40033" lon="2.62539">
        <ele>135</ele>
        <time>2023-08-04T08:05:08Z</time>
      </trkpt>
      <trkpt lat="48.40151" lon="2.62214">
        <ele>135</ele>
        <time>2023-08-04T08:10:36Z</time>
      </trkpt>
      <trkpt lat="48.40136" lon="2.62082">
        <ele>134</ele>
        <time>2023-08-04T08:12:35Z</time>
      </trkpt>
      <trkpt lat="48.40176" lon="2.61904">
        <ele>132</ele>
        <time>2023-08-04T08:15:21Z</time>
      </trkpt>
      <trkpt lat="48.40203" lon="2.61685">
        <ele>132</ele>
        <time>2023-08-04T08:18:39Z</time>
      </trkpt>
      <trkpt lat="48.40212" lon="2.61465">
        <ele>130</ele>
        <time>2023-08-04T08:21:54Z</time>
      </trkpt>
      <trkpt lat="48.40179" lon="2.61365">
        <ele>129</ele>
        <time>2023-08-04T08:23:33Z</time>
      </trkpt>
      <trkpt lat="48.40151" lon="2.61278">
        <ele>129</ele>
        <time>2023-08-04T08:24:58Z</time>
      </trkpt>
      <trkpt lat="48.40157" lon="2.61155">
        <ele>130</ele>
        <time>2023-08-04T08:26:48Z</time>
      </trkpt>
      <trkpt lat="48.401" lon="2.61018">
        <ele>126</ele>
        <time>2023-08-04T08:29:11Z</time>
      </trkpt>
      <trkpt lat="48.40109" lon="2.60876">
        <ele>125</ele>
        <time>2023-08-04T08:31:17Z</time>
      </trkpt>
      <trkpt lat="48.4006" lon="2.60629">
        <ele>122</ele>
        <time>2023-08-04T08:35:06Z</time>
      </trkpt>
      <trkpt lat="48.39979" lon="2.60446">
        <ele>121</ele>
        <time>2023-08-04T08:38:21Z</time>
      </trkpt>
      <trkpt lat="48.39863" lon="2.60392">
        <ele>120</ele>
        <time>2023-08-04T08:41:03Z</time>
      </trkpt>
      <trkpt lat="48.39791" lon="2.60236">
        <ele>118</ele>
        <time>2023-08-04T08:43:51Z</time>
      </trkpt>
      <trkpt lat="48.39689" lon="2.60049">
        <ele>112</ele>
        <time>2023-08-04T08:47:25Z</time>
      </trkpt>
      <trkpt lat="48.39613" lon="2.59953">
        <ele>100</ele>
        <time>2023-08-04T08:49:38Z</time>
      </trkpt>
      <trkpt lat="48.39492" lon="2.59976">
        <ele>91</ele>
        <time>2023-08-04T08:52:21Z</time>
      </trkpt>
      <trkpt lat="48.39467" lon="2.60086">
        <ele>94</ele>
        <time>2023-08-04T08:54:04Z</time>
      </trkpt>
      <trkpt lat="48.3917" lon="2.60524">
        <ele>115</ele>
        <time>2023-08-04T09:03:18Z</time>
      </trkpt>
      <trkpt lat="48.38931" lon="2.60616">
        <ele>130</ele>
        <time>2023-08-04T09:08:47Z</time>
      </trkpt>
      <trkpt lat="48.38788" lon="2.59844">
        <ele>126</ele>
        <time>2023-08-04T09:20:38Z</time>
      </trkpt>
      <trkpt lat="48.38739" lon="2.59904">
        <ele>126</ele>
        <time>2023-08-04T09:22:02Z</time>
      </trkpt>
      <trkpt lat="48.38642" lon="2.59922">
        <ele>126</ele>
        <time>2023-08-04T09:24:12Z</time>
      </trkpt>
      <trkpt lat="48.38666" lon="2.59497">
        <ele>125</ele>
        <time>2023-08-04T09:30:30Z</time>
      </trkpt>
      <trkpt lat="48.3863" lon="2.59328">
        <ele>122</ele>
        <time>2023-08-04T09:33:08Z</time>
      </trkpt>
      <trkpt lat="48.38157" lon="2.59502">
        <ele>130</ele>
        <time>2023-08-04T09:43:57Z</time>
      </trkpt>
      <trkpt lat="48.38063" lon="2.59624">
        <ele>127</ele>
        <time>2023-08-04T09:46:43Z</time>
      </trkpt>
      <trkpt lat="48.37984" lon="2.59597">
        <ele>127</ele>
        <time>2023-08-04T09:48:31Z</time>
      </trkpt>
      <trkpt lat="48.37996" lon="2.59099">
        <ele>124</ele>
        <time>2023-08-04T09:55:53Z</time>
      </trkpt>
      <trkpt lat="48.37532" lon="2.59469">
        <ele>135</ele>
        <time>2023-08-04T10:07:34Z</time>
      </trkpt>
      <trkpt lat="48.37396" lon="2.59601">
        <ele>131</ele>
        <time>2023-08-04T10:11:09Z</time>
      </trkpt>
      <trkpt lat="48.37329" lon="2.59757">
        <ele>133</ele>
        <time>2023-08-04T10:13:54Z</time>
      </trkpt>
      <trkpt lat="48.37222" lon="2.59904">
        <ele>132</ele>
        <time>2023-08-04T10:17:07Z</time>
      </trkpt>
      <trkpt lat="48.37159" lon="2.59991">
        <ele>128</ele>
        <time>2023-08-04T10:19:02Z</time>
      </trkpt>
      <trkpt lat="48.3704" lon="2.60105">
        <ele>129</ele>
        <time>2023-08-04T10:22:10Z</time>
      </trkpt>
      <trkpt lat="48.36922" lon="2.60174">
        <ele>128</ele>
        <time>2023-08-04T10:24:59Z</time>
      </trkpt>
      <trkpt lat="48.36828" lon="2.60316">
        <ele>128</ele>
        <time>2023-08-04T10:27:56Z</time>
      </trkpt>
      <trkpt lat="48.36713" lon="2.60485">
        <ele>130</ele>
        <time>2023-08-04T10:31:31Z</time>
      </trkpt>
      <trkpt lat="48.36649" lon="2.6064">
        <ele>133</ele>
        <time>2023-08-04T10:34:13Z</time>
      </trkpt>
      <trkpt lat="48.3635" lon="2.60683">
        <ele>135</ele>
        <time>2023-08-04T10:40:54Z</time>
      </trkpt>
      <trkpt lat="48.35898" lon="2.60546">
        <ele>129</ele>
        <time>2023-08-04T10:51:09Z</time>
      </trkpt>
      <trkpt lat="48.35889" lon="2.60897">
        <ele>132</ele>
        <time>2023-08-04T10:56:20Z</time>
      </trkpt>
      <trkpt lat="48.35892" lon="2.6172">
        <ele>133</ele>
        <time>2023-08-04T11:08:30Z</time>
      </trkpt>
      <trkpt lat="48.36271" lon="2.62236">
        <ele>140</ele>
        <time>2023-08-04T11:19:52Z</time>
      </trkpt>
      <trkpt lat="48.3632" lon="2.62222">
        <ele>141</ele>
        <time>2023-08-04T11:20:59Z</time>
      </trkpt>
      <trkpt lat="48.36321" lon="2.62755">
        <ele>145</ele>
        <time>2023-08-04T11:28:51Z</time>
      </trkpt>
      <trkpt lat="48.36779" lon="2.62868">
        <ele>137</ele>
        <time>2023-08-04T11:39:11Z</time>
      </trkpt>
      <trkpt lat="48.37138" lon="2.62621">
        <ele>132</ele>
        <time>2023-08-04T11:47:57Z</time>
      </trkpt>
      <trkpt lat="48.37534" lon="2.62375">
        <ele>136</ele>
        <time>2023-08-04T11:57:29Z</time>
      </trkpt>
    </trkseg>
  </trk>
</gpx>